sensor_id;sensor_type;location;lat;lon;timestamp;temperature;humidity
9845;DHT22;4961;50.782;6.080;2022-08-02T00:00:38;18.70;99.90
9845;DHT22;4961;50.782;6.080;2022-08-02T00:03:07;18.70;99.90
9845;DHT22;4961;50.782;6.080;2022-08-02T00:05:35;18.70;99.90
9845;DHT22;4961;50.782;6.080;2022-08-02T00:08:06;18.60;99.90
9845;DHT22;4961;50.782;6.080;2022-08-02T00:10:36;18.50;99.90
9845;DHT22;4961;50.782;6.080;2022-08-02T00:13:05;18.50;99.90
9845;DHT22;4961;50.782;6.080;2022-08-02T00:15:33;18.50;99.90
9845;DHT22;4961;50.782;6.080;2022-08-02T00:18:01;18.50;99.90
9845;DHT22;4961;50.782;6.080;2022-08-02T00:20:30;18.50;99.90
9845;DHT22;4961;50.782;6.080;2022-08-02T00:22:58;18.40;99.90
9845;DHT22;4961;50.782;6.080;2022-08-02T00:25:27;18.40;99.90
9845;DHT22;4961;50.782;6.080;2022-08-02T00:27:56;18.40;99.90
9845;DHT22;4961;50.782;6.080;2022-08-02T00:30:24;18.40;99.90
9845;DHT22;4961;50.782;6.080;2022-08-02T00:32:53;18.30;99.90
9845;DHT22;4961;50.782;6.080;2022-08-02T00:35:21;18.30;99.90
9845;DHT22;4961;50.782;6.080;2022-08-02T00:37:49;18.40;99.90
9845;DHT22;4961;50.782;6.080;2022-08-02T00:40:20;18.40;99.90
9845;DHT22;4961;50.782;6.080;2022-08-02T00:43:01;18.40;99.90
9845;DHT22;4961;50.782;6.080;2022-08-02T00:45:33;18.40;99.90
9845;DHT22;4961;50.782;6.080;2022-08-02T00:48:21;18.40;99.90
9845;DHT22;4961;50.782;6.080;2022-08-02T00:50:49;18.40;99.90
9845;DHT22;4961;50.782;6.080;2022-08-02T00:53:17;18.40;99.90
9845;DHT22;4961;50.782;6.080;2022-08-02T00:55:46;18.40;99.90
9845;DHT22;4961;50.782;6.080;2022-08-02T00:58:16;18.40;99.90
9845;DHT22;4961;50.782;6.080;2022-08-02T01:00:44;18.40;99.90
9845;DHT22;4961;50.782;6.080;2022-08-02T01:03:12;18.40;99.90
9845;DHT22;4961;50.782;6.080;2022-08-02T01:05:41;18.40;99.90
9845;DHT22;4961;50.782;6.080;2022-08-02T01:08:29;18.40;99.90
9845;DHT22;4961;50.782;6.080;2022-08-02T01:10:58;18.40;99.90
9845;DHT22;4961;50.782;6.080;2022-08-02T01:13:28;18.40;99.90
9845;DHT22;4961;50.782;6.080;2022-08-02T01:16:01;18.40;99.90
9845;DHT22;4961;50.782;6.080;2022-08-02T01:18:37;18.40;99.90
9845;DHT22;4961;50.782;6.080;2022-08-02T01:21:30;18.40;99.90
9845;DHT22;4961;50.782;6.080;2022-08-02T01:24:15;18.40;99.90
9845;DHT22;4961;50.782;6.080;2022-08-02T01:26:49;18.30;99.90
9845;DHT22;4961;50.782;6.080;2022-08-02T01:29:25;18.30;99.90
9845;DHT22;4961;50.782;6.080;2022-08-02T01:31:58;18.30;99.90
9845;DHT22;4961;50.782;6.080;2022-08-02T01:34:35;18.40;99.90
9845;DHT22;4961;50.782;6.080;2022-08-02T01:37:08;18.30;99.90
9845;DHT22;4961;50.782;6.080;2022-08-02T01:39:40;18.30;99.90
9845;DHT22;4961;50.782;6.080;2022-08-02T01:42:10;18.30;99.90
9845;DHT22;4961;50.782;6.080;2022-08-02T01:44:41;18.20;99.90
9845;DHT22;4961;50.782;6.080;2022-08-02T01:47:16;18.20;99.90
9845;DHT22;4961;50.782;6.080;2022-08-02T01:49:48;18.20;99.90
9845;DHT22;4961;50.782;6.080;2022-08-02T01:52:18;18.10;99.90
9845;DHT22;4961;50.782;6.080;2022-08-02T01:54:50;18.10;99.90
9845;DHT22;4961;50.782;6.080;2022-08-02T01:57:20;18.10;99.90
9845;DHT22;4961;50.782;6.080;2022-08-02T01:59:53;18.10;99.90
9845;DHT22;4961;50.782;6.080;2022-08-02T02:02:23;18.10;99.90
9845;DHT22;4961;50.782;6.080;2022-08-02T02:04:57;18.10;99.90
9845;DHT22;4961;50.782;6.080;2022-08-02T02:07:28;18.10;99.90
9845;DHT22;4961;50.782;6.080;2022-08-02T02:09:57;18.10;99.90
9845;DHT22;4961;50.782;6.080;2022-08-02T02:12:27;18.10;99.90
9845;DHT22;4961;50.782;6.080;2022-08-02T02:14:58;18.10;99.90
9845;DHT22;4961;50.782;6.080;2022-08-02T02:17:27;18.10;99.90
9845;DHT22;4961;50.782;6.080;2022-08-02T02:20:17;18.10;99.90
9845;DHT22;4961;50.782;6.080;2022-08-02T02:22:47;18.10;99.90
9845;DHT22;4961;50.782;6.080;2022-08-02T02:25:19;18.00;99.90
9845;DHT22;4961;50.782;6.080;2022-08-02T02:28:05;18.00;99.90
9845;DHT22;4961;50.782;6.080;2022-08-02T02:30:37;18.00;99.90
9845;DHT22;4961;50.782;6.080;2022-08-02T02:33:07;18.00;99.90
9845;DHT22;4961;50.782;6.080;2022-08-02T02:35:36;18.00;99.90
9845;DHT22;4961;50.782;6.080;2022-08-02T02:38:10;18.00;99.90
9845;DHT22;4961;50.782;6.080;2022-08-02T02:40:39;18.00;99.90
9845;DHT22;4961;50.782;6.080;2022-08-02T02:43:10;18.00;99.90
9845;DHT22;4961;50.782;6.080;2022-08-02T02:45:41;18.00;99.90
9845;DHT22;4961;50.782;6.080;2022-08-02T02:48:12;18.00;99.90
9845;DHT22;4961;50.782;6.080;2022-08-02T02:50:42;18.00;99.90
9845;DHT22;4961;50.782;6.080;2022-08-02T02:53:12;17.90;99.90
9845;DHT22;4961;50.782;6.080;2022-08-02T02:55:43;17.90;99.90
9845;DHT22;4961;50.782;6.080;2022-08-02T02:58:29;17.90;99.90
9845;DHT22;4961;50.782;6.080;2022-08-02T03:00:59;17.90;99.90
9845;DHT22;4961;50.782;6.080;2022-08-02T03:03:45;17.80;99.90
9845;DHT22;4961;50.782;6.080;2022-08-02T03:06:14;17.80;99.90
9845;DHT22;4961;50.782;6.080;2022-08-02T03:08:43;17.70;99.90
9845;DHT22;4961;50.782;6.080;2022-08-02T03:11:13;17.70;99.90
9845;DHT22;4961;50.782;6.080;2022-08-02T03:13:42;17.70;99.90
9845;DHT22;4961;50.782;6.080;2022-08-02T03:16:12;17.80;99.90
9845;DHT22;4961;50.782;6.080;2022-08-02T03:18:41;17.80;99.90
9845;DHT22;4961;50.782;6.080;2022-08-02T03:21:12;17.70;99.90
9845;DHT22;4961;50.782;6.080;2022-08-02T03:23:41;17.80;99.90
9845;DHT22;4961;50.782;6.080;2022-08-02T03:26:10;17.80;99.90
9845;DHT22;4961;50.782;6.080;2022-08-02T03:28:39;17.70;99.90
9845;DHT22;4961;50.782;6.080;2022-08-02T03:31:07;17.70;99.90
9845;DHT22;4961;50.782;6.080;2022-08-02T03:33:38;17.70;99.90
9845;DHT22;4961;50.782;6.080;2022-08-02T03:36:10;17.70;99.90
9845;DHT22;4961;50.782;6.080;2022-08-02T03:38:39;17.70;99.90
9845;DHT22;4961;50.782;6.080;2022-08-02T03:41:10;17.70;99.90
9845;DHT22;4961;50.782;6.080;2022-08-02T03:43:40;17.70;99.90
9845;DHT22;4961;50.782;6.080;2022-08-02T03:46:09;17.80;99.90
9845;DHT22;4961;50.782;6.080;2022-08-02T03:48:41;17.80;99.90
9845;DHT22;4961;50.782;6.080;2022-08-02T03:51:10;17.80;99.90
9845;DHT22;4961;50.782;6.080;2022-08-02T03:53:39;17.90;99.90
9845;DHT22;4961;50.782;6.080;2022-08-02T03:56:08;17.90;99.90
9845;DHT22;4961;50.782;6.080;2022-08-02T03:58:37;17.90;99.90
9845;DHT22;4961;50.782;6.080;2022-08-02T04:01:05;17.90;99.90
9845;DHT22;4961;50.782;6.080;2022-08-02T04:03:34;17.90;99.90
9845;DHT22;4961;50.782;6.080;2022-08-02T04:06:04;17.90;99.90
9845;DHT22;4961;50.782;6.080;2022-08-02T04:08:33;17.90;99.90
9845;DHT22;4961;50.782;6.080;2022-08-02T04:11:04;17.90;99.90
9845;DHT22;4961;50.782;6.080;2022-08-02T04:13:50;17.90;99.90
9845;DHT22;4961;50.782;6.080;2022-08-02T04:16:28;17.90;99.90
9845;DHT22;4961;50.782;6.080;2022-08-02T04:19:01;17.90;99.90
9845;DHT22;4961;50.782;6.080;2022-08-02T04:21:34;17.90;99.90
9845;DHT22;4961;50.782;6.080;2022-08-02T04:24:22;17.90;99.90
9845;DHT22;4961;50.782;6.080;2022-08-02T04:26:55;17.90;99.90
9845;DHT22;4961;50.782;6.080;2022-08-02T04:29:43;17.90;99.90
9845;DHT22;4961;50.782;6.080;2022-08-02T04:32:13;17.90;99.90
9845;DHT22;4961;50.782;6.080;2022-08-02T04:34:42;17.90;99.90
9845;DHT22;4961;50.782;6.080;2022-08-02T04:37:32;18.00;99.90
9845;DHT22;4961;50.782;6.080;2022-08-02T04:40:01;18.00;99.90
9845;DHT22;4961;50.782;6.080;2022-08-02T04:42:29;18.00;99.90
9845;DHT22;4961;50.782;6.080;2022-08-02T04:44:57;18.00;99.90
9845;DHT22;4961;50.782;6.080;2022-08-02T04:47:26;18.00;99.90
9845;DHT22;4961;50.782;6.080;2022-08-02T04:50:14;18.00;99.90
9845;DHT22;4961;50.782;6.080;2022-08-02T04:52:43;18.00;99.90
9845;DHT22;4961;50.782;6.080;2022-08-02T04:55:13;18.00;99.90
9845;DHT22;4961;50.782;6.080;2022-08-02T04:57:41;18.00;99.90
9845;DHT22;4961;50.782;6.080;2022-08-02T05:00:25;18.10;99.90
9845;DHT22;4961;50.782;6.080;2022-08-02T05:02:55;18.10;99.90
9845;DHT22;4961;50.782;6.080;2022-08-02T05:05:24;18.20;99.90
9845;DHT22;4961;50.782;6.080;2022-08-02T05:07:54;18.30;99.90
9845;DHT22;4961;50.782;6.080;2022-08-02T05:10:23;18.40;99.90
9845;DHT22;4961;50.782;6.080;2022-08-02T05:12:52;18.40;99.90
9845;DHT22;4961;50.782;6.080;2022-08-02T05:15:20;18.50;99.90
9845;DHT22;4961;50.782;6.080;2022-08-02T05:17:48;18.60;99.90
9845;DHT22;4961;50.782;6.080;2022-08-02T05:20:17;18.60;99.90
9845;DHT22;4961;50.782;6.080;2022-08-02T05:22:46;18.60;99.90
9845;DHT22;4961;50.782;6.080;2022-08-02T05:25:16;18.70;99.90
9845;DHT22;4961;50.782;6.080;2022-08-02T05:27:44;18.70;99.90
9845;DHT22;4961;50.782;6.080;2022-08-02T05:30:13;18.80;99.90
9845;DHT22;4961;50.782;6.080;2022-08-02T05:32:43;18.90;99.90
9845;DHT22;4961;50.782;6.080;2022-08-02T05:35:11;18.90;99.90
9845;DHT22;4961;50.782;6.080;2022-08-02T05:37:40;18.90;99.90
9845;DHT22;4961;50.782;6.080;2022-08-02T05:40:09;18.90;99.90
9845;DHT22;4961;50.782;6.080;2022-08-02T05:42:43;18.90;99.90
9845;DHT22;4961;50.782;6.080;2022-08-02T05:45:11;18.90;99.90
9845;DHT22;4961;50.782;6.080;2022-08-02T05:47:40;19.00;99.90
9845;DHT22;4961;50.782;6.080;2022-08-02T05:50:09;19.10;99.90
9845;DHT22;4961;50.782;6.080;2022-08-02T05:52:50;19.20;99.90
9845;DHT22;4961;50.782;6.080;2022-08-02T05:55:25;19.20;99.90
9845;DHT22;4961;50.782;6.080;2022-08-02T05:58:02;19.40;99.90
9845;DHT22;4961;50.782;6.080;2022-08-02T06:00:32;19.50;99.90
9845;DHT22;4961;50.782;6.080;2022-08-02T06:03:13;19.50;99.90
9845;DHT22;4961;50.782;6.080;2022-08-02T06:05:50;19.50;99.90
9845;DHT22;4961;50.782;6.080;2022-08-02T06:08:20;19.60;99.90
9845;DHT22;4961;50.782;6.080;2022-08-02T06:10:51;19.70;99.90
9845;DHT22;4961;50.782;6.080;2022-08-02T06:13:26;19.80;99.90
9845;DHT22;4961;50.782;6.080;2022-08-02T06:15:54;19.80;99.90
9845;DHT22;4961;50.782;6.080;2022-08-02T06:18:26;19.90;99.90
9845;DHT22;4961;50.782;6.080;2022-08-02T06:20:56;20.00;99.90
9845;DHT22;4961;50.782;6.080;2022-08-02T06:23:46;20.10;99.90
9845;DHT22;4961;50.782;6.080;2022-08-02T06:26:25;20.20;99.90
9845;DHT22;4961;50.782;6.080;2022-08-02T06:28:56;20.20;99.90
9845;DHT22;4961;50.782;6.080;2022-08-02T06:31:25;20.20;99.90
9845;DHT22;4961;50.782;6.080;2022-08-02T06:33:53;20.30;99.90
9845;DHT22;4961;50.782;6.080;2022-08-02T06:36:29;20.30;99.90
9845;DHT22;4961;50.782;6.080;2022-08-02T06:39:02;20.50;99.90
9845;DHT22;4961;50.782;6.080;2022-08-02T06:41:38;20.50;99.90
9845;DHT22;4961;50.782;6.080;2022-08-02T06:44:10;20.50;99.90
9845;DHT22;4961;50.782;6.080;2022-08-02T06:46:58;20.60;99.90
9845;DHT22;4961;50.782;6.080;2022-08-02T06:49:38;20.60;99.90
9845;DHT22;4961;50.782;6.080;2022-08-02T06:52:22;20.70;99.90
9845;DHT22;4961;50.782;6.080;2022-08-02T06:54:55;20.80;99.90
9845;DHT22;4961;50.782;6.080;2022-08-02T06:57:24;20.80;99.90
9845;DHT22;4961;50.782;6.080;2022-08-02T06:59:54;20.90;99.90
9845;DHT22;4961;50.782;6.080;2022-08-02T07:02:22;20.90;99.90
9845;DHT22;4961;50.782;6.080;2022-08-02T07:04:51;21.00;99.90
9845;DHT22;4961;50.782;6.080;2022-08-02T07:07:19;21.00;99.90
9845;DHT22;4961;50.782;6.080;2022-08-02T07:09:48;21.10;99.90
9845;DHT22;4961;50.782;6.080;2022-08-02T07:12:28;21.20;99.90
9845;DHT22;4961;50.782;6.080;2022-08-02T07:15:00;21.30;99.90
9845;DHT22;4961;50.782;6.080;2022-08-02T07:17:28;21.30;99.90
9845;DHT22;4961;50.782;6.080;2022-08-02T07:19:57;21.30;99.90
9845;DHT22;4961;50.782;6.080;2022-08-02T07:22:26;21.30;99.90
9845;DHT22;4961;50.782;6.080;2022-08-02T07:24:55;21.40;99.90
9845;DHT22;4961;50.782;6.080;2022-08-02T07:27:24;21.40;99.90
9845;DHT22;4961;50.782;6.080;2022-08-02T07:29:54;21.50;99.90
9845;DHT22;4961;50.782;6.080;2022-08-02T07:32:29;21.50;99.90
9845;DHT22;4961;50.782;6.080;2022-08-02T07:34:59;21.50;99.90
9845;DHT22;4961;50.782;6.080;2022-08-02T07:37:35;21.60;99.90
9845;DHT22;4961;50.782;6.080;2022-08-02T07:40:22;21.60;99.90
9845;DHT22;4961;50.782;6.080;2022-08-02T07:42:54;21.70;99.90
9845;DHT22;4961;50.782;6.080;2022-08-02T07:45:30;21.80;99.90
9845;DHT22;4961;50.782;6.080;2022-08-02T07:48:04;21.90;99.90
9845;DHT22;4961;50.782;6.080;2022-08-02T07:50:34;21.90;99.90
9845;DHT22;4961;50.782;6.080;2022-08-02T07:53:02;22.00;99.90
9845;DHT22;4961;50.782;6.080;2022-08-02T07:55:31;22.10;99.90
9845;DHT22;4961;50.782;6.080;2022-08-02T07:58:08;22.10;99.90
9845;DHT22;4961;50.782;6.080;2022-08-02T08:00:40;22.20;99.90
9845;DHT22;4961;50.782;6.080;2022-08-02T08:03:11;22.30;99.90
9845;DHT22;4961;50.782;6.080;2022-08-02T08:05:39;22.40;99.90
9845;DHT22;4961;50.782;6.080;2022-08-02T08:08:08;22.40;99.90
9845;DHT22;4961;50.782;6.080;2022-08-02T08:10:43;22.50;99.90
9845;DHT22;4961;50.782;6.080;2022-08-02T08:13:12;22.50;99.90
9845;DHT22;4961;50.782;6.080;2022-08-02T08:15:40;22.60;99.90
9845;DHT22;4961;50.782;6.080;2022-08-02T08:18:19;22.60;99.90
9845;DHT22;4961;50.782;6.080;2022-08-02T08:20:48;22.70;99.90
9845;DHT22;4961;50.782;6.080;2022-08-02T08:23:17;22.70;99.90
9845;DHT22;4961;50.782;6.080;2022-08-02T08:25:45;22.80;99.90
9845;DHT22;4961;50.782;6.080;2022-08-02T08:28:14;22.90;99.90
9845;DHT22;4961;50.782;6.080;2022-08-02T08:30:42;22.90;99.90
9845;DHT22;4961;50.782;6.080;2022-08-02T08:33:11;23.00;99.90
9845;DHT22;4961;50.782;6.080;2022-08-02T08:35:41;23.00;99.90
9845;DHT22;4961;50.782;6.080;2022-08-02T08:38:09;23.10;99.90
9845;DHT22;4961;50.782;6.080;2022-08-02T08:40:37;23.20;99.90
9845;DHT22;4961;50.782;6.080;2022-08-02T08:43:07;23.20;99.90
9845;DHT22;4961;50.782;6.080;2022-08-02T08:45:36;23.30;99.90
9845;DHT22;4961;50.782;6.080;2022-08-02T08:48:09;23.40;99.90
9845;DHT22;4961;50.782;6.080;2022-08-02T08:50:44;23.50;99.90
9845;DHT22;4961;50.782;6.080;2022-08-02T08:53:14;23.60;99.90
9845;DHT22;4961;50.782;6.080;2022-08-02T08:55:46;23.70;99.90
9845;DHT22;4961;50.782;6.080;2022-08-02T08:58:15;23.70;99.90
9845;DHT22;4961;50.782;6.080;2022-08-02T09:00:46;23.60;99.90
9845;DHT22;4961;50.782;6.080;2022-08-02T09:03:16;23.50;99.90
9845;DHT22;4961;50.782;6.080;2022-08-02T09:05:47;23.50;99.90
9845;DHT22;4961;50.782;6.080;2022-08-02T09:08:15;23.60;99.90
9845;DHT22;4961;50.782;6.080;2022-08-02T09:10:45;23.70;99.90
9845;DHT22;4961;50.782;6.080;2022-08-02T09:13:16;24.00;99.90
9845;DHT22;4961;50.782;6.080;2022-08-02T09:16:05;24.10;99.90
9845;DHT22;4961;50.782;6.080;2022-08-02T09:18:40;24.20;99.90
9845;DHT22;4961;50.782;6.080;2022-08-02T09:21:12;24.40;99.90
9845;DHT22;4961;50.782;6.080;2022-08-02T09:23:43;24.60;99.90
9845;DHT22;4961;50.782;6.080;2022-08-02T09:26:13;24.90;99.90
9845;DHT22;4961;50.782;6.080;2022-08-02T09:28:47;25.30;99.90
9845;DHT22;4961;50.782;6.080;2022-08-02T09:31:18;25.60;99.90
9845;DHT22;4961;50.782;6.080;2022-08-02T09:33:51;25.90;99.90
9845;DHT22;4961;50.782;6.080;2022-08-02T09:36:23;26.00;99.90
9845;DHT22;4961;50.782;6.080;2022-08-02T09:38:53;26.00;99.90
9845;DHT22;4961;50.782;6.080;2022-08-02T09:41:23;25.90;99.90
9845;DHT22;4961;50.782;6.080;2022-08-02T09:43:53;26.10;99.90
9845;DHT22;4961;50.782;6.080;2022-08-02T09:46:33;26.00;99.90
9845;DHT22;4961;50.782;6.080;2022-08-02T09:49:06;25.90;99.90
9845;DHT22;4961;50.782;6.080;2022-08-02T09:51:38;26.10;99.90
9845;DHT22;4961;50.782;6.080;2022-08-02T09:54:08;26.40;99.90
9845;DHT22;4961;50.782;6.080;2022-08-02T09:56:43;26.30;99.90
9845;DHT22;4961;50.782;6.080;2022-08-02T09:59:12;26.10;99.90
9845;DHT22;4961;50.782;6.080;2022-08-02T10:01:43;25.90;99.90
9845;DHT22;4961;50.782;6.080;2022-08-02T10:04:26;25.90;99.90
9845;DHT22;4961;50.782;6.080;2022-08-02T10:06:59;26.20;99.90
9845;DHT22;4961;50.782;6.080;2022-08-02T10:09:30;26.50;99.90
9845;DHT22;4961;50.782;6.080;2022-08-02T10:11:59;26.90;99.90
9845;DHT22;4961;50.782;6.080;2022-08-02T10:14:29;27.10;99.90
9845;DHT22;4961;50.782;6.080;2022-08-02T10:16:57;27.30;99.90
9845;DHT22;4961;50.782;6.080;2022-08-02T10:19:26;27.30;99.90
9845;DHT22;4961;50.782;6.080;2022-08-02T10:22:16;27.20;99.90
9845;DHT22;4961;50.782;6.080;2022-08-02T10:24:46;27.40;99.90
9845;DHT22;4961;50.782;6.080;2022-08-02T10:27:17;27.70;99.90
9845;DHT22;4961;50.782;6.080;2022-08-02T10:29:47;27.80;99.90
9845;DHT22;4961;50.782;6.080;2022-08-02T10:32:25;28.10;99.90
9845;DHT22;4961;50.782;6.080;2022-08-02T10:34:57;28.10;99.90
9845;DHT22;4961;50.782;6.080;2022-08-02T10:37:50;28.20;99.90
9845;DHT22;4961;50.782;6.080;2022-08-02T10:40:19;28.30;99.90
9845;DHT22;4961;50.782;6.080;2022-08-02T10:42:53;28.40;99.90
9845;DHT22;4961;50.782;6.080;2022-08-02T10:45:22;28.50;99.90
9845;DHT22;4961;50.782;6.080;2022-08-02T10:47:58;28.60;99.90
9845;DHT22;4961;50.782;6.080;2022-08-02T10:50:52;28.70;99.90
9845;DHT22;4961;50.782;6.080;2022-08-02T10:53:24;29.00;99.90
9845;DHT22;4961;50.782;6.080;2022-08-02T10:55:54;29.50;99.90
9845;DHT22;4961;50.782;6.080;2022-08-02T10:58:24;29.90;99.90
9845;DHT22;4961;50.782;6.080;2022-08-02T11:00:56;30.10;99.90
9845;DHT22;4961;50.782;6.080;2022-08-02T11:03:37;30.00;99.90
9845;DHT22;4961;50.782;6.080;2022-08-02T11:06:10;29.80;99.90
9845;DHT22;4961;50.782;6.080;2022-08-02T11:09:26;29.80;99.90
9845;DHT22;4961;50.782;6.080;2022-08-02T11:12:00;29.80;99.90
9845;DHT22;4961;50.782;6.080;2022-08-02T11:14:29;29.90;99.90
9845;DHT22;4961;50.782;6.080;2022-08-02T11:17:09;30.10;99.90
9845;DHT22;4961;50.782;6.080;2022-08-02T11:22:44;29.50;99.90
9845;DHT22;4961;50.782;6.080;2022-08-02T11:25:31;29.30;99.90
9845;DHT22;4961;50.782;6.080;2022-08-02T11:28:19;29.10;99.90
9845;DHT22;4961;50.782;6.080;2022-08-02T11:31:00;29.10;99.90
9845;DHT22;4961;50.782;6.080;2022-08-02T11:33:30;29.00;99.90
9845;DHT22;4961;50.782;6.080;2022-08-02T11:36:04;29.20;99.90
9845;DHT22;4961;50.782;6.080;2022-08-02T11:38:33;29.40;99.90
9845;DHT22;4961;50.782;6.080;2022-08-02T11:41:22;29.20;99.90
9845;DHT22;4961;50.782;6.080;2022-08-02T11:44:16;29.10;99.90
9845;DHT22;4961;50.782;6.080;2022-08-02T11:46:54;28.80;99.90
9845;DHT22;4961;50.782;6.080;2022-08-02T11:49:23;28.60;99.90
9845;DHT22;4961;50.782;6.080;2022-08-02T11:51:56;28.60;99.90
9845;DHT22;4961;50.782;6.080;2022-08-02T11:54:28;28.50;99.90
9845;DHT22;4961;50.782;6.080;2022-08-02T11:57:20;28.40;99.90
9845;DHT22;4961;50.782;6.080;2022-08-02T11:59:50;28.30;99.90
9845;DHT22;4961;50.782;6.080;2022-08-02T12:02:20;28.30;99.90
9845;DHT22;4961;50.782;6.080;2022-08-02T12:04:52;28.10;99.90
9845;DHT22;4961;50.782;6.080;2022-08-02T12:07:28;28.00;99.90
9845;DHT22;4961;50.782;6.080;2022-08-02T12:10:04;27.90;99.90
9845;DHT22;4961;50.782;6.080;2022-08-02T12:12:46;27.90;99.90
9845;DHT22;4961;50.782;6.080;2022-08-02T12:15:27;27.90;99.90
9845;DHT22;4961;50.782;6.080;2022-08-02T12:17:56;27.90;99.90
9845;DHT22;4961;50.782;6.080;2022-08-02T12:20:42;27.80;99.90
9845;DHT22;4961;50.782;6.080;2022-08-02T12:23:12;28.00;99.90
9845;DHT22;4961;50.782;6.080;2022-08-02T12:25:40;28.30;99.90
9845;DHT22;4961;50.782;6.080;2022-08-02T12:28:14;28.60;99.90
9845;DHT22;4961;50.782;6.080;2022-08-02T12:30:52;28.70;99.90
9845;DHT22;4961;50.782;6.080;2022-08-02T12:33:22;28.60;99.90
9845;DHT22;4961;50.782;6.080;2022-08-02T12:35:51;28.70;99.90
9845;DHT22;4961;50.782;6.080;2022-08-02T12:38:20;28.80;99.90
9845;DHT22;4961;50.782;6.080;2022-08-02T12:40:49;29.00;99.90
9845;DHT22;4961;50.782;6.080;2022-08-02T12:43:20;29.00;99.90
9845;DHT22;4961;50.782;6.080;2022-08-02T12:45:50;29.10;99.90
9845;DHT22;4961;50.782;6.080;2022-08-02T12:48:31;29.00;99.90
9845;DHT22;4961;50.782;6.080;2022-08-02T12:51:18;29.00;99.90
9845;DHT22;4961;50.782;6.080;2022-08-02T12:53:47;28.90;99.90
9845;DHT22;4961;50.782;6.080;2022-08-02T12:56:31;28.70;99.90
9845;DHT22;4961;50.782;6.080;2022-08-02T12:59:02;28.70;99.90
9845;DHT22;4961;50.782;6.080;2022-08-02T13:01:30;28.70;99.90
9845;DHT22;4961;50.782;6.080;2022-08-02T13:03:59;28.90;99.90
9845;DHT22;4961;50.782;6.080;2022-08-02T13:06:39;29.10;99.90
9845;DHT22;4961;50.782;6.080;2022-08-02T13:09:14;29.30;99.90
9845;DHT22;4961;50.782;6.080;2022-08-02T13:11:44;29.20;99.90
9845;DHT22;4961;50.782;6.080;2022-08-02T13:14:14;29.30;99.90
9845;DHT22;4961;50.782;6.080;2022-08-02T13:16:44;29.40;99.90
9845;DHT22;4961;50.782;6.080;2022-08-02T13:19:13;29.40;99.90
9845;DHT22;4961;50.782;6.080;2022-08-02T13:21:43;29.50;99.90
9845;DHT22;4961;50.782;6.080;2022-08-02T13:24:30;29.60;99.90
9845;DHT22;4961;50.782;6.080;2022-08-02T13:27:07;29.70;99.90
9845;DHT22;4961;50.782;6.080;2022-08-02T13:29:37;29.80;99.90
9845;DHT22;4961;50.782;6.080;2022-08-02T13:32:06;29.80;99.90
9845;DHT22;4961;50.782;6.080;2022-08-02T13:34:35;29.80;99.90
9845;DHT22;4961;50.782;6.080;2022-08-02T13:37:03;29.90;99.90
9845;DHT22;4961;50.782;6.080;2022-08-02T13:39:31;29.90;99.90
9845;DHT22;4961;50.782;6.080;2022-08-02T13:41:59;29.80;99.90
9845;DHT22;4961;50.782;6.080;2022-08-02T13:44:28;29.80;99.90
9845;DHT22;4961;50.782;6.080;2022-08-02T13:46:58;29.80;99.90
9845;DHT22;4961;50.782;6.080;2022-08-02T13:49:26;29.80;99.90
9845;DHT22;4961;50.782;6.080;2022-08-02T13:52:15;29.80;99.90
9845;DHT22;4961;50.782;6.080;2022-08-02T13:54:43;29.80;99.90
9845;DHT22;4961;50.782;6.080;2022-08-02T13:57:12;29.70;99.90
9845;DHT22;4961;50.782;6.080;2022-08-02T13:59:40;29.70;99.90
9845;DHT22;4961;50.782;6.080;2022-08-02T14:02:26;29.70;99.90
9845;DHT22;4961;50.782;6.080;2022-08-02T14:04:56;29.70;99.90
9845;DHT22;4961;50.782;6.080;2022-08-02T14:07:25;29.60;99.90
9845;DHT22;4961;50.782;6.080;2022-08-02T14:09:53;29.50;99.90
9845;DHT22;4961;50.782;6.080;2022-08-02T14:12:21;29.50;99.90
9845;DHT22;4961;50.782;6.080;2022-08-02T14:14:50;29.50;99.90
9845;DHT22;4961;50.782;6.080;2022-08-02T14:17:18;29.40;99.90
9845;DHT22;4961;50.782;6.080;2022-08-02T14:19:48;29.40;99.90
9845;DHT22;4961;50.782;6.080;2022-08-02T14:22:17;29.30;99.90
9845;DHT22;4961;50.782;6.080;2022-08-02T14:24:45;29.30;99.90
9845;DHT22;4961;50.782;6.080;2022-08-02T14:27:14;29.40;99.90
9845;DHT22;4961;50.782;6.080;2022-08-02T14:29:43;29.30;99.90
9845;DHT22;4961;50.782;6.080;2022-08-02T14:32:12;29.40;99.90
9845;DHT22;4961;50.782;6.080;2022-08-02T14:34:41;29.40;99.90
9845;DHT22;4961;50.782;6.080;2022-08-02T14:37:12;29.60;99.90
9845;DHT22;4961;50.782;6.080;2022-08-02T14:39:42;29.40;99.90
9845;DHT22;4961;50.782;6.080;2022-08-02T14:42:27;29.30;99.90
9845;DHT22;4961;50.782;6.080;2022-08-02T14:44:56;29.30;99.90
9845;DHT22;4961;50.782;6.080;2022-08-02T14:47:24;29.20;99.90
9845;DHT22;4961;50.782;6.080;2022-08-02T14:49:52;29.10;99.90
9845;DHT22;4961;50.782;6.080;2022-08-02T14:52:22;29.00;99.90
9845;DHT22;4961;50.782;6.080;2022-08-02T14:54:51;28.90;99.90
9845;DHT22;4961;50.782;6.080;2022-08-02T14:57:19;29.00;99.90
9845;DHT22;4961;50.782;6.080;2022-08-02T14:59:49;29.00;99.90
9845;DHT22;4961;50.782;6.080;2022-08-02T15:02:18;28.80;99.90
9845;DHT22;4961;50.782;6.080;2022-08-02T15:04:46;28.80;99.90
9845;DHT22;4961;50.782;6.080;2022-08-02T15:07:14;28.90;99.90
9845;DHT22;4961;50.782;6.080;2022-08-02T15:09:45;28.90;99.90
9845;DHT22;4961;50.782;6.080;2022-08-02T15:12:13;29.00;99.90
9845;DHT22;4961;50.782;6.080;2022-08-02T15:14:42;29.20;99.90
9845;DHT22;4961;50.782;6.080;2022-08-02T15:17:10;29.20;99.90
9845;DHT22;4961;50.782;6.080;2022-08-02T15:19:39;29.20;99.90
9845;DHT22;4961;50.782;6.080;2022-08-02T15:22:27;29.20;99.90
9845;DHT22;4961;50.782;6.080;2022-08-02T15:24:59;29.00;99.90
9845;DHT22;4961;50.782;6.080;2022-08-02T15:27:27;29.00;99.90
9845;DHT22;4961;50.782;6.080;2022-08-02T15:29:56;28.90;99.90
9845;DHT22;4961;50.782;6.080;2022-08-02T15:32:27;28.80;99.90
9845;DHT22;4961;50.782;6.080;2022-08-02T15:34:55;28.70;99.90
9845;DHT22;4961;50.782;6.080;2022-08-02T15:37:23;28.70;99.90
9845;DHT22;4961;50.782;6.080;2022-08-02T15:39:58;28.70;99.90
9845;DHT22;4961;50.782;6.080;2022-08-02T15:42:26;28.70;99.90
9845;DHT22;4961;50.782;6.080;2022-08-02T15:44:57;28.80;99.90
9845;DHT22;4961;50.782;6.080;2022-08-02T15:47:26;28.80;99.90
9845;DHT22;4961;50.782;6.080;2022-08-02T15:49:54;28.80;99.90
9845;DHT22;4961;50.782;6.080;2022-08-02T15:52:25;28.80;99.90
9845;DHT22;4961;50.782;6.080;2022-08-02T15:54:59;28.80;99.90
9845;DHT22;4961;50.782;6.080;2022-08-02T15:57:33;28.80;99.90
9845;DHT22;4961;50.782;6.080;2022-08-02T16:00:03;28.80;99.90
9845;DHT22;4961;50.782;6.080;2022-08-02T16:02:31;28.70;99.90
9845;DHT22;4961;50.782;6.080;2022-08-02T16:05:00;28.60;99.90
9845;DHT22;4961;50.782;6.080;2022-08-02T16:07:40;28.70;99.90
9845;DHT22;4961;50.782;6.080;2022-08-02T16:10:10;28.60;99.90
9845;DHT22;4961;50.782;6.080;2022-08-02T16:12:39;28.60;99.90
9845;DHT22;4961;50.782;6.080;2022-08-02T16:15:08;28.50;99.90
9845;DHT22;4961;50.782;6.080;2022-08-02T16:17:36;28.50;99.90
9845;DHT22;4961;50.782;6.080;2022-08-02T16:20:20;28.40;99.90
9845;DHT22;4961;50.782;6.080;2022-08-02T16:22:49;28.40;99.90
9845;DHT22;4961;50.782;6.080;2022-08-02T16:25:19;28.30;99.90
9845;DHT22;4961;50.782;6.080;2022-08-02T16:27:47;28.30;99.90
9845;DHT22;4961;50.782;6.080;2022-08-02T16:30:33;28.30;99.90
9845;DHT22;4961;50.782;6.080;2022-08-02T16:33:02;28.30;99.90
9845;DHT22;4961;50.782;6.080;2022-08-02T16:35:30;28.20;99.90
9845;DHT22;4961;50.782;6.080;2022-08-02T16:38:00;28.20;99.90